Time;durP1;ratioP1;P1;durP2;ratioP2;P2;SDS_P1;SDS_P2;PMS_P1;PMS_P2;Temp;Humidity;BMP_temperature;BMP_pressure;BME280_temperature;BME280_humidity;BME280_pressure;Samples;Min_cycle;Max_cycle;Signal;HPM_P1;HPM_P2
2022/07/06 00:02:07;;;;;;;7.20;4.60;;;;;;;25.25;49.94;100087.60;1690244;84;21530;-69
2022/07/06 00:04:37;;;;;;;5.45;4.28;;;;;;;25.23;50.14;100084.84;1690939;84;21743;-70
2022/07/06 00:07:07;;;;;;;5.58;4.20;;;;;;;25.23;50.33;100080.63;1691213;84;21078;-69
2022/07/06 00:09:37;;;;;;;7.70;4.40;;;;;;;25.19;50.61;100081.80;1685878;84;21062;-68
2022/07/06 00:12:08;;;;;;;10.25;4.62;;;;;;;25.16;50.73;100075.97;1690224;85;21471;-68
2022/07/06 00:14:38;;;;;;;6.83;4.28;;;;;;;25.12;51.02;100076.30;1698621;83;21115;-68
2022/07/06 00:17:13;;;;;;;9.03;4.47;;;;;;;25.08;51.07;100081.69;1693973;84;21094;-69
2022/07/06 00:19:42;;;;;;;9.80;4.58;;;;;;;25.10;51.18;100075.77;1674166;84;21097;-67
2022/07/06 00:22:12;;;;;;;6.72;4.50;;;;;;;25.12;51.17;100072.93;1690209;85;21270;-68
2022/07/06 00:24:45;;;;;;;6.50;4.55;;;;;;;25.11;51.24;100078.28;1698118;83;21042;-67
2022/07/06 00:27:14;;;;;;;6.10;4.30;;;;;;;25.12;51.39;100076.30;1679220;84;21066;-67
2022/07/06 00:29:44;;;;;;;7.90;4.30;;;;;;;25.11;51.45;100076.04;1679238;84;21038;-69
2022/07/06 00:32:14;;;;;;;8.55;4.90;;;;;;;25.09;51.53;100075.51;1667906;85;21038;-68
2022/07/06 00:34:43;;;;;;;7.30;4.78;;;;;;;25.07;51.67;100073.57;1703639;83;21035;-68
2022/07/06 00:37:15;;;;;;;5.53;4.30;;;;;;;25.04;51.75;100072.77;1699177;83;21102;-69
2022/07/06 00:39:45;;;;;;;7.58;4.67;;;;;;;25.00;52.00;100070.31;1699679;83;21001;-68
2022/07/06 00:42:15;;;;;;;7.50;4.70;;;;;;;24.91;52.22;100070.12;1719059;83;21114;-68
2022/07/06 00:44:45;;;;;;;9.63;4.58;;;;;;;24.86;52.48;100074.39;1714250;83;21540;-69
2022/07/06 00:47:14;;;;;;;7.58;4.70;;;;;;;24.80;52.69;100075.02;1711116;83;21027;-68
2022/07/06 00:52:31;;;;;;;5.83;4.28;;;;;;;24.72;53.10;100072.89;1702125;83;21047;-70
2022/07/06 00:55:02;;;;;;;5.75;4.55;;;;;;;24.70;53.38;100076.52;1711935;83;21002;-68
2022/07/06 00:57:31;;;;;;;7.50;4.62;;;;;;;24.73;53.44;100072.31;1702389;83;21062;-69
2022/07/06 01:00:06;;;;;;;5.95;4.70;;;;;;;24.73;53.46;100072.31;1718281;83;21055;-68
2022/07/06 01:02:36;;;;;;;6.67;4.78;;;;;;;24.70;53.57;100071.48;1706136;83;22189;-69
2022/07/06 01:05:07;;;;;;;6.30;4.47;;;;;;;24.67;53.89;100074.31;1711514;83;21066;-69
2022/07/06 01:07:37;;;;;;;6.78;4.95;;;;;;;24.61;54.04;100071.31;1705586;83;21041;-69
2022/07/06 01:10:07;;;;;;;6.67;4.60;;;;;;;24.56;54.33;100069.97;1719455;83;21039;-69
2022/07/06 01:12:39;;;;;;;5.85;4.35;;;;;;;24.53;54.66;100069.17;1724398;82;20991;-69
2022/07/06 01:15:18;;;;;;;6.53;4.60;;;;;;;24.47;54.91;100068.96;1709831;83;21048;-68
2022/07/06 01:17:50;;;;;;;7.33;4.83;;;;;;;24.41;55.23;100063.15;1694479;83;21452;-69
2022/07/06 01:20:25;;;;;;;6.08;4.78;;;;;;;24.36;55.44;100064.61;1701423;83;21051;-67
2022/07/06 01:22:58;;;;;;;6.22;4.53;;;;;;;24.30;55.83;100070.27;1720646;83;21023;-69
2022/07/06 01:25:28;;;;;;;7.20;4.67;;;;;;;24.25;56.05;100075.89;1667812;83;21147;-68
2022/07/06 01:27:58;;;;;;;9.33;5.00;;;;;;;24.23;56.33;100072.55;1695538;83;21491;-67
2022/07/06 01:30:27;;;;;;;6.75;4.83;;;;;;;24.19;56.61;100067.84;1729057;82;21063;-68
2022/07/06 01:32:58;;;;;;;9.10;4.95;;;;;;;24.15;56.84;100070.97;1724859;82;21124;-67
2022/07/06 01:35:27;;;;;;;6.87;5.10;;;;;;;24.11;57.00;100068.48;1747220;81;21020;-67
2022/07/06 01:37:58;;;;;;;7.08;5.03;;;;;;;24.08;57.04;100064.88;1724476;82;21456;-69
2022/07/06 01:40:28;;;;;;;6.47;5.12;;;;;;;24.08;57.21;100064.31;1729478;82;21439;-69
2022/07/06 01:43:01;;;;;;;10.60;4.80;;;;;;;24.06;57.24;100059.58;1721768;82;21492;-69
2022/07/06 01:45:33;;;;;;;6.55;4.65;;;;;;;24.05;57.46;100057.87;1730336;82;21071;-67
2022/07/06 01:48:08;;;;;;;5.50;4.90;;;;;;;24.03;57.56;100057.33;1736656;81;21059;-68
2022/07/06 01:50:38;;;;;;;5.60;4.87;;;;;;;24.01;57.74;100058.20;1742771;82;21015;-69
2022/07/06 01:53:07;;;;;;;6.65;5.10;;;;;;;24.00;57.94;100062.12;1722205;82;21443;-68
2022/07/06 01:55:36;;;;;;;5.70;4.67;;;;;;;23.96;58.13;100062.45;1703761;83;21451;-68
2022/07/06 01:58:05;;;;;;;9.68;4.78;;;;;;;23.92;58.31;100066.39;1709769;83;21056;-68
2022/07/06 02:00:36;;;;;;;8.20;4.83;;;;;;;23.91;58.53;100066.69;1727244;82;21063;-68
2022/07/06 02:03:06;;;;;;;7.92;5.05;;;;;;;23.90;58.61;100071.45;1726097;82;21024;-67
2022/07/06 02:05:37;;;;;;;6.35;5.22;;;;;;;23.92;58.74;100067.80;1701802;83;21320;-68
2022/07/06 02:08:07;;;;;;;8.55;5.28;;;;;;;23.93;58.83;100070.03;1715226;83;21019;-68
2022/07/06 02:10:37;;;;;;;11.35;5.45;;;;;;;23.91;58.93;100066.69;1725159;83;21054;-68
2022/07/06 02:13:07;;;;;;;7.35;5.08;;;;;;;23.91;59.07;100063.33;1713579;83;21022;-68
2022/07/06 02:15:38;;;;;;;11.93;5.40;;;;;;;23.89;59.35;100055.79;1736656;82;21110;-68
2022/07/06 02:18:07;;;;;;;6.78;4.85;;;;;;;23.82;59.62;100055.86;1727335;83;21412;-70
2022/07/06 02:20:38;;;;;;;7.28;5.17;;;;;;;23.71;59.94;100055.95;1707331;83;21035;-68
2022/07/06 02:23:08;;;;;;;10.00;5.60;;;;;;;23.69;60.06;100053.18;1731010;83;21039;-68
2022/07/06 02:25:38;;;;;;;6.55;4.92;;;;;;;23.70;60.11;100057.08;1708205;83;21035;-71
2022/07/06 02:28:08;;;;;;;6.62;4.97;;;;;;;23.76;60.08;100050.05;1727753;82;21132;-69
2022/07/06 02:30:38;;;;;;;7.97;5.03;;;;;;;23.82;60.00;100060.89;1703930;83;21098;-69
2022/07/06 02:33:09;;;;;;;9.35;5.72;;;;;;;23.88;59.92;100054.69;1745593;82;21083;-67
2022/07/06 02:35:42;;;;;;;10.00;5.90;;;;;;;23.92;59.90;100053.80;1710169;83;21086;-69
2022/07/06 02:38:11;;;;;;;6.92;5.20;;;;;;;23.98;59.83;100053.19;1687858;83;21538;-69
2022/07/06 02:40:41;;;;;;;13.53;6.08;;;;;;;24.03;59.65;100054.53;1722033;82;21074;-68
2022/07/06 02:43:11;;;;;;;9.38;5.25;;;;;;;24.08;59.43;100054.52;1725449;82;21063;-69
2022/07/06 02:45:41;;;;;;;8.35;5.65;;;;;;;24.11;59.35;100056.72;1751015;82;21019;-68
2022/07/06 02:48:13;;;;;;;6.90;5.25;;;;;;;24.11;59.26;100059.52;1723535;82;21484;-69
2022/07/06 02:50:42;;;;;;;9.60;5.17;;;;;;;24.12;59.18;100055.59;1734159;82;21025;-69
2022/07/06 02:53:12;;;;;;;5.97;5.20;;;;;;;24.14;59.13;100058.93;1724155;82;21005;-68
2022/07/06 02:55:42;;;;;;;6.62;5.00;;;;;;;24.17;59.13;100058.91;1743354;82;21086;-68
2022/07/06 02:58:13;;;;;;;9.45;5.62;;;;;;;24.19;59.02;100054.67;1721129;83;21462;-68
2022/07/06 03:00:43;;;;;;;8.90;6.20;;;;;;;24.22;58.96;100056.05;1714909;83;21521;-68
2022/07/06 03:03:15;;;;;;;9.78;5.60;;;;;;;24.25;58.84;100059.66;1687008;83;21043;-70
2022/07/06 03:05:46;;;;;;;8.15;5.70;;;;;;;24.25;58.72;100054.05;1721555;83;21086;-69
2022/07/06 03:08:17;;;;;;;6.70;5.95;;;;;;;24.23;58.71;100048.75;1709554;83;21057;-69
2022/07/06 03:10:47;;;;;;;8.83;6.08;;;;;;;24.25;58.63;100058.25;1739740;82;21015;-68
2022/07/06 03:13:17;;;;;;;11.73;6.30;;;;;;;24.26;58.53;100053.76;1691736;84;21078;-69
2022/07/06 03:15:49;;;;;;;8.75;6.35;;;;;;;24.27;58.48;100045.66;1604889;87;21560;-68
2022/07/06 03:18:19;;;;;;;10.30;6.55;;;;;;;24.29;58.29;100054.59;1645836;87;21079;-69
2022/07/06 03:20:49;;;;;;;8.98;6.72;;;;;;;24.31;58.29;100050.94;1659492;86;21138;-69
2022/07/06 03:23:20;;;;;;;10.00;6.78;;;;;;;24.32;58.32;100047.00;1660031;86;21110;-70
2022/07/06 03:25:50;;;;;;;8.45;6.08;;;;;;;24.33;58.28;100047.27;1657192;86;21077;-68
2022/07/06 03:28:20;;;;;;;8.28;6.45;;;;;;;24.36;58.27;100053.41;1658733;86;21075;-70
2022/07/06 03:30:51;;;;;;;10.58;6.47;;;;;;;24.38;58.21;100056.18;1656522;86;21035;-70
2022/07/06 03:33:21;;;;;;;10.35;6.87;;;;;;;24.41;58.06;100058.95;1674495;83;21024;-69
2022/07/06 03:35:51;;;;;;;10.45;6.78;;;;;;;24.44;57.85;100055.55;1701200;83;21086;-71
2022/07/06 03:38:21;;;;;;;8.60;6.30;;;;;;;24.48;57.56;100058.03;1708045;83;21054;-68
2022/07/06 03:40:53;;;;;;;12.07;6.17;;;;;;;24.51;57.31;100058.83;1717539;83;21030;-67
2022/07/06 03:43:25;;;;;;;7.92;6.05;;;;;;;24.56;56.83;100067.17;1714207;83;21083;-67
2022/07/06 03:45:56;;;;;;;7.37;5.37;;;;;;;24.62;56.46;100065.98;1718461;83;21066;-72
2022/07/06 03:48:26;;;;;;;8.93;5.70;;;;;;;24.66;56.08;100061.44;1730824;82;21023;-67
2022/07/06 03:50:56;;;;;;;11.50;5.87;;;;;;;24.69;55.81;100062.24;1718551;83;21091;-69
2022/07/06 03:53:27;;;;;;;8.00;5.90;;;;;;;24.76;55.58;100057.70;1716119;83;21082;-69
2022/07/06 03:58:47;;;;;;;6.05;5.42;;;;;;;24.85;54.75;100052.53;1714079;83;21459;-70
2022/07/06 04:01:16;;;;;;;9.08;5.33;;;;;;;24.93;54.43;100051.03;1701743;83;21133;-68
2022/07/06 04:03:48;;;;;;;7.78;5.80;;;;;;;24.99;53.87;100049.02;1717572;83;21039;-68
2022/07/06 04:06:20;;;;;;;10.18;5.80;;;;;;;25.06;53.79;100053.68;1704722;83;21067;-70
2022/07/06 04:08:49;;;;;;;9.23;6.05;;;;;;;25.11;53.58;100051.64;1729066;83;21019;-69
2022/07/06 04:11:19;;;;;;;8.28;5.78;;;;;;;25.21;53.41;100047.84;1719897;83;21038;-70
2022/07/06 04:13:49;;;;;;;10.78;5.78;;;;;;;25.28;53.04;100039.31;1718964;83;21090;-67
2022/07/06 04:16:19;;;;;;;7.25;5.50;;;;;;;25.37;52.80;100041.47;1718081;83;21095;-68
2022/07/06 04:18:50;;;;;;;9.10;5.62;;;;;;;25.43;52.55;100040.25;1701387;83;21103;-69
2022/07/06 04:21:21;;;;;;;9.88;5.75;;;;;;;25.49;52.25;100037.63;1718222;83;21031;-68
2022/07/06 04:23:53;;;;;;;15.78;5.83;;;;;;;25.55;51.98;100035.00;1705179;83;21222;-69
2022/07/06 04:26:23;;;;;;;7.72;5.28;;;;;;;25.59;51.62;100031.27;1722029;83;21027;-70
2022/07/06 04:28:53;;;;;;;7.05;5.25;;;;;;;25.62;51.35;100029.82;1715158;83;21054;-68
2022/07/06 04:31:25;;;;;;;6.65;5.75;;;;;;;25.65;51.19;100026.41;1710660;83;21047;-68
2022/07/06 04:33:54;;;;;;;7.42;4.90;;;;;;;25.70;50.93;100019.91;1699882;83;21083;-68
2022/07/06 04:36:24;;;;;;;7.30;5.28;;;;;;;25.72;50.49;100024.64;1682141;84;21059;-70
2022/07/06 04:38:54;;;;;;;7.15;5.08;;;;;;;25.72;50.28;100018.45;1678073;84;21042;-68
2022/07/06 04:41:25;;;;;;;7.33;5.40;;;;;;;25.75;50.42;100026.26;1681251;84;21066;-68
2022/07/06 04:43:59;;;;;;;10.72;5.35;;;;;;;25.79;50.35;100021.70;1690959;84;21031;-69
2022/07/06 04:46:29;;;;;;;6.97;5.08;;;;;;;25.85;50.02;100021.86;1694827;84;21100;-69
2022/07/06 04:48:58;;;;;;;6.47;4.92;;;;;;;25.89;49.60;100021.51;1677352;85;21055;-69
2022/07/06 04:51:31;;;;;;;9.55;5.12;;;;;;;25.96;49.56;100023.91;1671926;85;21068;-71
2022/07/06 04:54:01;;;;;;;8.78;5.08;;;;;;;26.03;49.28;100013.14;1673919;84;21047;-69
2022/07/06 04:56:31;;;;;;;8.70;5.50;;;;;;;26.10;49.07;100006.55;1689451;84;21071;-72
2022/07/06 04:59:03;;;;;;;8.18;5.50;;;;;;;26.16;48.93;100001.09;1689736;84;21042;-70
2022/07/06 05:01:33;;;;;;;5.12;4.60;;;;;;;26.28;48.44;100002.55;1690195;84;20994;-69
2022/07/06 05:04:04;;;;;;;9.40;5.12;;;;;;;26.41;48.05;100006.80;1674198;84;21090;-70
2022/07/06 05:06:34;;;;;;;7.10;4.72;;;;;;;26.56;47.54;100006.22;1686397;84;21125;-69
2022/07/06 05:09:04;;;;;;;6.03;4.70;;;;;;;26.76;47.04;99999.61;1683605;84;21054;-68
2022/07/06 05:11:37;;;;;;;8.65;4.90;;;;;;;26.99;46.71;100005.31;1695109;84;21190;-68
2022/07/06 05:14:07;;;;;;;10.25;4.97;;;;;;;27.26;45.67;100003.81;1674529;84;21055;-69
2022/07/06 05:16:38;;;;;;;12.05;5.28;;;;;;;27.52;45.04;99994.77;1675178;84;21432;-69
2022/07/06 05:19:09;;;;;;;7.62;4.83;;;;;;;27.74;44.14;100002.65;1686138;84;21066;-68
2022/07/06 05:21:38;;;;;;;9.23;5.10;;;;;;;27.97;43.62;100000.66;1674819;84;21440;-71
2022/07/06 05:24:09;;;;;;;6.97;4.40;;;;;;;28.18;43.07;99993.05;1681236;84;21058;-69
2022/07/06 05:26:40;;;;;;;6.53;4.33;;;;;;;28.40;42.33;99991.59;1675682;84;21488;-69
2022/07/06 05:29:09;;;;;;;10.70;4.58;;;;;;;28.63;41.80;99998.82;1702050;84;21011;-69
2022/07/06 05:31:40;;;;;;;7.25;4.45;;;;;;;28.84;41.07;99998.23;1698248;84;21170;-70
2022/07/06 05:34:11;;;;;;;9.93;4.75;;;;;;;29.22;40.56;99989.38;1691078;84;21051;-68
2022/07/06 05:36:43;;;;;;;7.55;5.10;;;;;;;29.46;39.96;99989.50;1712676;83;21074;-70
2022/07/06 05:39:12;;;;;;;9.98;4.47;;;;;;;29.46;39.96;99989.50;1712808;83;21394;-70
2022/07/06 05:41:41;;;;;;;11.57;4.40;;;;;;;29.68;39.90;99989.30;1684683;84;21520;-71
2022/07/06 05:44:12;;;;;;;9.88;4.75;;;;;;;29.94;39.52;99979.38;1725788;83;21178;-70
2022/07/06 05:46:41;;;;;;;7.45;4.80;;;;;;;30.17;38.97;99988.47;1719173;82;21035;-71
2022/07/06 05:52:03;;;;;;;11.40;5.85;;;;;;;30.34;38.03;99992.63;1719804;82;21056;-69
2022/07/06 05:54:36;;;;;;;8.63;4.80;;;;;;;30.41;38.43;99999.99;1719342;82;21083;-69
2022/07/06 05:57:05;;;;;;;7.58;4.65;;;;;;;30.56;38.16;99998.59;1730987;82;21027;-71
2022/07/06 05:59:35;;;;;;;7.37;4.37;;;;;;;30.76;38.30;99989.38;1730622;82;21025;-69
2022/07/06 06:02:05;;;;;;;10.48;5.10;;;;;;;31.05;37.85;99976.34;1720121;82;20993;-69
2022/07/06 06:04:34;;;;;;;17.15;6.17;;;;;;;31.27;37.26;99963.32;1723919;82;21047;-70
2022/07/06 06:07:04;;;;;;;10.40;5.47;;;;;;;31.39;36.61;99965.38;1734820;82;21051;-69
2022/07/06 06:09:33;;;;;;;10.80;4.95;;;;;;;31.47;36.06;99968.71;1732156;82;21052;-70
2022/07/06 06:12:04;;;;;;;7.67;4.70;;;;;;;31.54;36.23;99970.39;1717909;82;21285;-71
2022/07/06 06:14:34;;;;;;;11.22;4.58;;;;;;;31.70;36.22;99969.17;1713213;83;21075;-69
2022/07/06 06:17:08;;;;;;;6.15;4.37;;;;;;;31.89;35.12;99965.83;1701307;83;21023;-71
2022/07/06 06:19:36;;;;;;;16.45;8.75;;;;;;;32.06;34.83;99961.36;1727102;83;21102;-70
2022/07/06 06:22:07;;;;;;;8.95;4.42;;;;;;;32.32;33.52;99959.05;1635637;86;21059;-69
2022/07/06 06:24:37;;;;;;;9.33;4.17;;;;;;;32.56;33.00;99953.99;1644672;86;21464;-70
2022/07/06 06:27:07;;;;;;;8.13;4.42;;;;;;;32.78;32.55;99949.85;1640421;86;21471;-70
2022/07/06 06:29:37;;;;;;;5.87;4.17;;;;;;;32.92;32.06;99951.70;1634074;86;21114;-70
2022/07/06 06:32:07;;;;;;;6.80;4.33;;;;;;;33.04;31.81;99957.35;1647312;86;21197;-71
2022/07/06 06:34:39;;;;;;;7.47;4.70;;;;;;;33.27;31.14;99954.00;1644803;86;21090;-69
2022/07/06 06:37:08;;;;;;;5.72;4.03;;;;;;;33.40;31.04;99953.61;1651155;86;21071;-67
2022/07/06 06:39:39;;;;;;;6.17;3.83;;;;;;;33.56;30.78;99948.56;1672329;83;21461;-69
2022/07/06 06:42:09;;;;;;;6.42;3.92;;;;;;;33.70;30.62;99948.37;1710565;83;21044;-71
2022/07/06 06:44:42;;;;;;;6.72;4.25;;;;;;;33.85;29.91;99937.45;1702258;83;21461;-72
2022/07/06 06:47:11;;;;;;;12.40;4.67;;;;;;;33.91;30.13;99926.86;1697609;83;21100;-71
2022/07/06 06:49:41;;;;;;;8.35;4.40;;;;;;;34.08;30.03;99929.11;1714001;83;21487;-68
2022/07/06 06:52:11;;;;;;;7.87;4.12;;;;;;;34.29;29.72;99938.17;1704753;83;21027;-70
2022/07/06 06:54:43;;;;;;;8.73;4.53;;;;;;;34.44;29.32;99930.84;1695926;83;21093;-72
2022/07/06 06:57:14;;;;;;;9.70;4.35;;;;;;;34.58;29.05;99926.95;1698960;83;21072;-70
2022/07/06 06:59:44;;;;;;;8.43;3.87;;;;;;;34.69;29.10;99923.75;1705589;83;21090;-70
2022/07/06 07:02:14;;;;;;;11.33;4.90;;;;;;;34.82;28.87;99916.77;1699898;83;21200;-70
2022/07/06 07:04:44;;;;;;;7.53;4.42;;;;;;;34.90;28.94;99917.74;1715976;82;21144;-70
2022/07/06 07:07:15;;;;;;;9.88;5.00;;;;;;;35.00;29.00;99912.05;1719461;83;21068;-71
2022/07/06 07:09:45;;;;;;;10.18;5.30;;;;;;;35.06;28.69;99910.56;1715794;83;21075;-70
2022/07/06 07:12:16;;;;;;;6.58;4.30;;;;;;;35.17;28.55;99909.62;1714725;83;21086;-70
2022/07/06 07:14:47;;;;;;;15.05;4.87;;;;;;;35.31;28.13;99907.66;1707899;83;21459;-69
2022/07/06 07:17:17;;;;;;;11.68;4.97;;;;;;;35.30;28.31;99912.30;1735369;82;21065;-71
2022/07/06 07:19:47;;;;;;;12.33;4.40;;;;;;;35.38;28.28;99914.12;1698991;83;21596;-70
2022/07/06 07:22:16;;;;;;;10.43;4.40;;;;;;;35.58;27.78;99916.57;1706957;83;21107;-70
2022/07/06 07:24:45;;;;;;;6.42;3.87;;;;;;;35.59;27.61;99910.27;1678652;83;21035;-71
2022/07/06 07:27:15;;;;;;;6.75;3.80;;;;;;;35.68;27.48;99910.85;1707766;83;21051;-69
2022/07/06 07:29:46;;;;;;;7.83;4.25;;;;;;;35.78;27.61;99912.28;1729924;82;21419;-71
2022/07/06 07:32:16;;;;;;;7.47;3.85;;;;;;;35.84;27.69;99903.06;1713953;83;21090;-68
2022/07/06 07:34:46;;;;;;;11.43;4.05;;;;;;;35.94;28.00;99902.20;1726387;82;21058;-69
2022/07/06 07:37:16;;;;;;;9.43;4.40;;;;;;;35.96;27.64;99904.08;1726621;83;21066;-69
2022/07/06 07:39:46;;;;;;;10.45;4.12;;;;;;;36.00;28.11;99903.53;1707860;83;21497;-73
2022/07/06 07:42:17;;;;;;;4.83;3.95;;;;;;;36.09;28.25;99894.94;1697902;83;21027;-72
2022/07/06 07:44:48;;;;;;;5.58;4.10;;;;;;;36.17;28.13;99903.83;1708940;83;21290;-70
2022/07/06 07:47:18;;;;;;;7.53;4.55;;;;;;;36.24;28.18;99898.02;1708785;83;21075;-69
2022/07/06 07:49:47;;;;;;;5.53;4.17;;;;;;;36.35;28.18;99902.72;1717484;82;21463;-70
2022/07/06 07:52:17;;;;;;;13.22;4.75;;;;;;;36.35;28.11;99904.15;1715994;83;21094;-70
2022/07/06 07:54:47;;;;;;;5.83;4.55;;;;;;;36.31;28.34;99906.73;1720323;83;21066;-72
2022/07/06 07:57:19;;;;;;;6.37;4.30;;;;;;;36.29;28.35;99906.28;1707616;83;21119;-69
2022/07/06 07:59:48;;;;;;;10.65;4.72;;;;;;;36.27;28.43;99898.69;1704138;83;21467;-66
2022/07/06 08:02:18;;;;;;;9.78;4.37;;;;;;;36.33;28.53;99906.56;1715847;83;21505;-66
2022/07/06 08:04:49;;;;;;;12.40;4.62;;;;;;;36.35;28.33;99901.30;1680340;83;21035;-66
2022/07/06 08:07:20;;;;;;;7.75;4.60;;;;;;;36.41;28.23;99907.50;1743854;82;20984;-67
2022/07/06 08:09:51;;;;;;;11.28;5.15;;;;;;;36.37;28.47;99898.06;1739147;82;21054;-69
2022/07/06 08:12:22;;;;;;;8.88;4.62;;;;;;;36.33;28.65;99905.14;1748710;82;21068;-68
2022/07/06 08:14:52;;;;;;;5.97;3.85;;;;;;;36.45;28.46;99906.38;1721132;83;21094;-67
2022/07/06 08:17:21;;;;;;;6.12;4.30;;;;;;;36.58;28.16;99899.84;1703668;83;21451;-63
2022/07/06 08:19:51;;;;;;;7.83;4.30;;;;;;;36.71;27.78;99899.83;1703571;83;21036;-72
2022/07/06 08:22:21;;;;;;;11.57;4.72;;;;;;;36.76;27.79;99908.66;1732941;82;21163;-68
2022/07/06 08:24:51;;;;;;;8.08;4.72;;;;;;;36.75;27.53;99899.88;1723476;82;20993;-71
2022/07/06 08:27:23;;;;;;;7.92;4.50;;;;;;;36.55;27.99;99893.47;1715787;83;21026;-69
2022/07/06 08:29:53;;;;;;;6.55;4.30;;;;;;;36.57;27.82;99895.34;1733326;82;20998;-70
2022/07/06 08:32:23;;;;;;;8.70;4.17;;;;;;;36.59;27.55;99891.50;1727432;82;21000;-70
2022/07/06 08:34:55;;;;;;;7.92;4.65;;;;;;;36.72;27.71;99899.22;1731350;82;21087;-69
2022/07/06 08:37:25;;;;;;;12.85;4.45;;;;;;;36.82;27.40;99895.11;1717549;82;21049;-68
2022/07/06 08:39:56;;;;;;;7.22;4.10;;;;;;;36.86;27.69;99898.62;1719903;82;21060;-70
2022/07/06 08:42:30;;;;;;;6.70;3.90;;;;;;;36.98;26.95;99887.78;1736778;82;21039;-71
2022/07/06 08:45:01;;;;;;;15.23;6.12;;;;;;;37.03;26.98;99889.47;1722120;82;21075;-70
2022/07/06 08:47:32;;;;;;;9.08;3.95;;;;;;;36.92;26.96;99885.65;1711559;83;21465;-70
2022/07/06 08:50:03;;;;;;;5.92;3.75;;;;;;;36.85;27.03;99882.70;1728036;83;21090;-71
2022/07/06 08:52:35;;;;;;;7.58;3.58;;;;;;;36.82;26.90;99878.59;1732698;82;21047;-70
2022/07/06 08:55:05;;;;;;;5.70;3.83;;;;;;;36.91;26.63;99879.72;1720111;83;21086;-70
2022/07/06 08:57:35;;;;;;;4.60;3.55;;;;;;;37.05;26.39;99879.30;1713399;83;21035;-71
2022/07/06 09:00:06;;;;;;;6.75;3.37;;;;;;;37.20;25.52;99871.75;1727586;83;21114;-72
2022/07/06 09:02:35;;;;;;;8.23;3.85;;;;;;;37.05;25.41;99875.02;1720063;83;21071;-71
2022/07/06 09:05:06;;;;;;;5.35;3.37;;;;;;;36.79;25.66;99865.09;1720679;83;21082;-71
2022/07/06 09:07:39;;;;;;;6.65;3.30;;;;;;;36.70;25.86;99866.77;1704675;83;21428;-70
2022/07/06 09:10:12;;;;;;;7.00;3.42;;;;;;;36.72;25.96;99857.22;1690857;83;21118;-70
2022/07/06 09:12:42;;;;;;;6.90;4.00;;;;;;;36.80;25.65;99857.56;1713757;83;21511;-69
2022/07/06 09:15:12;;;;;;;5.65;3.60;;;;;;;36.94;25.49;99853.23;1720039;83;21043;-69
2022/07/06 09:17:44;;;;;;;7.10;3.55;;;;;;;37.08;25.11;99865.70;1715668;83;21078;-74
2022/07/06 09:20:14;;;;;;;4.53;3.40;;;;;;;37.00;24.90;99868.22;1728146;83;21031;-72
2022/07/06 09:22:44;;;;;;;6.33;3.42;;;;;;;36.91;25.09;99861.16;1705212;83;21106;-70
2022/07/06 09:25:15;;;;;;;15.30;4.65;;;;;;;36.82;24.93;99857.99;1682402;83;21035;-71
2022/07/06 09:27:49;;;;;;;7.05;3.62;;;;;;;36.69;24.87;99846.56;1705414;83;21016;-73
2022/07/06 09:30:19;;;;;;;10.35;3.85;;;;;;;36.65;25.07;99840.59;1716227;83;20983;-71
2022/07/06 09:32:53;;;;;;;6.60;3.80;;;;;;;36.64;25.09;99838.95;1736208;82;20998;-73
2022/07/06 09:35:37;;;;;;;4.62;4.00;;;;;;;36.49;25.21;99830.19;1749618;82;21485;-71
2022/07/06 09:38:11;;;;;;;9.70;4.05;;;;;;;36.39;25.37;99830.01;1715492;83;21071;-70
2022/07/06 09:40:45;;;;;;;6.70;3.52;;;;;;;36.31;25.44;99823.98;1714710;83;21046;-69
2022/07/06 09:43:22;;;;;;;9.90;4.30;;;;;;;36.28;25.46;99827.56;1730758;82;21047;-70
2022/07/06 09:45:56;;;;;;;15.18;3.90;;;;;;;36.22;25.41;99829.93;1744180;82;21099;-71
2022/07/06 09:48:28;;;;;;;7.28;3.75;;;;;;;36.11;25.78;99821.81;1731101;82;21491;-71
2022/07/06 09:51:06;;;;;;;6.20;3.47;;;;;;;36.14;25.81;99828.17;1704727;83;21042;-67
2022/07/06 09:53:36;;;;;;;8.98;3.95;;;;;;;36.15;25.64;99814.13;1725739;83;21027;-70
2022/07/06 09:56:08;;;;;;;7.80;4.28;;;;;;;36.04;25.93;99815.39;1715468;83;21071;-70
2022/07/06 09:58:39;;;;;;;7.33;3.75;;;;;;;35.98;25.97;99817.53;1709904;83;21440;-70
2022/07/06 10:01:11;;;;;;;11.50;4.00;;;;;;;35.94;25.47;99810.34;1715747;83;21405;-69
2022/07/06 10:03:40;;;;;;;8.68;4.12;;;;;;;35.82;25.78;99808.53;1709923;83;21055;-70
2022/07/06 10:06:11;;;;;;;7.10;3.87;;;;;;;35.66;26.22;99815.52;1720183;83;21485;-71
2022/07/06 10:08:41;;;;;;;4.72;3.70;;;;;;;35.58;26.48;99795.44;1750904;82;21019;-69
2022/07/06 10:11:14;;;;;;;7.10;4.17;;;;;;;35.58;26.54;99800.31;1691478;83;21093;-69
2022/07/06 10:13:44;;;;;;;9.05;4.10;;;;;;;35.64;25.79;99805.91;1725385;83;21491;-75
2022/07/06 10:16:15;;;;;;;7.80;3.77;;;;;;;35.67;25.41;99806.58;1706972;83;21071;-71
2022/07/06 10:18:44;;;;;;;8.53;5.78;;;;;;;35.71;24.87;99805.22;1710428;83;21082;-72
2022/07/06 10:21:15;;;;;;;15.00;4.80;;;;;;;35.71;24.92;99801.77;1715476;83;21021;-72
2022/07/06 10:23:46;;;;;;;5.20;3.90;;;;;;;35.71;24.91;99795.23;1731688;82;21011;-72
2022/07/06 10:26:20;;;;;;;7.25;4.12;;;;;;;35.65;24.54;99793.91;1709311;82;21052;-72
2022/07/06 10:28:50;;;;;;;6.60;4.20;;;;;;;35.51;24.58;99789.62;1739100;82;21058;-72
2022/07/06 10:31:20;;;;;;;6.55;4.50;;;;;;;35.43;25.01;99779.89;1741884;81;21016;-71
2022/07/06 10:33:50;;;;;;;5.53;4.50;;;;;;;35.43;24.86;99785.59;1737629;82;21033;-71
2022/07/06 10:36:19;;;;;;;10.30;4.72;;;;;;;35.43;24.70;99773.59;1716507;83;21089;-72
2022/07/06 10:38:54;;;;;;;5.55;4.35;;;;;;;35.40;25.07;99770.69;1714134;83;21448;-73
2022/07/06 10:44:18;;;;;;;8.03;4.30;;;;;;;35.43;25.72;99770.75;1716788;82;21012;-70
2022/07/06 10:46:55;;;;;;;7.70;4.55;;;;;;;35.46;25.23;99755.73;1665828;86;21071;-72
2022/07/06 10:49:26;;;;;;;7.70;4.45;;;;;;;35.48;25.23;99766.75;1698467;83;21048;-70
2022/07/06 10:51:58;;;;;;;7.67;5.25;;;;;;;35.48;25.17;99767.58;1698522;82;21055;-73
2022/07/06 10:54:27;;;;;;;13.45;5.83;;;;;;;35.46;24.98;99761.44;1700474;83;21049;-70
2022/07/06 10:56:59;;;;;;;10.48;5.00;;;;;;;35.50;24.54;99756.63;1708624;82;21004;-72
2022/07/06 10:59:29;;;;;;;7.40;5.15;;;;;;;35.54;24.57;99746.70;1614194;86;21031;-72
2022/07/06 11:02:17;;;;;;;12.07;5.45;;;;;;;35.58;24.29;99742.71;1601906;86;21192;-69
2022/07/06 11:04:48;;;;;;;6.62;5.10;;;;;;;35.66;23.63;99745.07;1713093;83;21040;-72
2022/07/06 11:07:19;;;;;;;9.53;5.30;;;;;;;35.63;23.61;99745.02;1654097;85;21109;-72
2022/07/06 11:10:15;;;;;;;5.58;4.70;;;;;;;35.54;24.01;99734.70;1710331;83;21475;-70
2022/07/06 11:12:47;;;;;;;6.28;4.45;;;;;;;35.41;25.02;99724.72;1674027;83;21052;-69
2022/07/06 11:15:34;;;;;;;7.20;4.87;;;;;;;35.26;25.78;99719.95;1709779;83;21092;-70
2022/07/06 11:18:12;;;;;;;9.20;4.78;;;;;;;35.14;25.89;99713.84;1659257;83;21542;-72
2022/07/06 11:20:43;;;;;;;5.50;4.22;;;;;;;34.99;26.25;99711.08;1712389;83;21013;-71
2022/07/06 11:23:15;;;;;;;8.85;4.60;;;;;;;34.91;26.22;99708.70;1656212;86;21040;-73
2022/07/06 11:25:45;;;;;;;12.00;5.33;;;;;;;34.86;26.04;99705.56;1717908;83;20980;-72
2022/07/06 11:28:16;;;;;;;9.28;4.90;;;;;;;34.84;26.29;99698.00;1704461;83;21087;-71
2022/07/06 11:30:47;;;;;;;7.50;4.80;;;;;;;34.88;25.11;99704.59;1653513;86;21119;-71
2022/07/06 11:33:31;;;;;;;9.90;4.70;;;;;;;34.94;24.46;99705.10;1698937;83;21095;-71
2022/07/06 11:36:19;;;;;;;6.60;4.40;;;;;;;34.89;25.06;99703.39;1698947;83;21056;-73
2022/07/06 11:38:50;;;;;;;7.25;4.70;;;;;;;34.85;25.94;99704.52;1706470;83;21109;-71
2022/07/06 11:41:21;;;;;;;8.70;4.83;;;;;;;34.73;26.33;99691.86;1707555;83;21128;-71
2022/07/06 11:43:52;;;;;;;7.12;5.20;;;;;;;34.66;26.57;99689.70;1651664;86;21051;-72
2022/07/06 11:46:29;;;;;;;9.60;5.00;;;;;;;34.62;26.61;99702.43;1673404;85;21526;-71
2022/07/06 11:49:06;;;;;;;7.30;4.80;;;;;;;34.60;26.74;99696.89;1706331;83;21041;-70
2022/07/06 11:51:40;;;;;;;;;;;;;;;34.60;26.71;99691.20;1708473;83;21468;-72
2022/07/06 11:54:13;;;;;;;8.40;4.75;;;;;;;34.64;26.56;99684.98;1736739;81;20158;-72
2022/07/06 11:56:49;;;;;;;10.38;4.95;;;;;;;34.64;26.37;99681.53;1663184;85;21449;-71
2022/07/06 11:59:28;;;;;;;11.22;4.80;;;;;;;34.65;26.34;99683.78;1714105;83;21076;-72